Hopewell, Ohio
Current Conditions -  °F | °C
As of 5:53 PM on Friday 28 Nov 2014 (Local Time) from KZZV Reporting Station
Overcast Overcast  
Wind Chill: 29°   Ceiling: 10000
Heat Index: 29°   Visibility: 10mi
Dew Point: 16°   Wind: 3mph
Humidity: 58%   Direction: 190°S
Pressure: 30.24"   Gusts: NA
Location:  39.95°N, 82.17°W
Report Text: KZZV 282253Z AUTO 19003KT 10SM SCT065 SCT075 OVC100 M02/M09 A3024 RMK AO2 SLP249 T10171089
Loading
Personal Weather Stations






























Interactive Weather Map New forecast layout! Learn more

10-Day Weather Forecast

Advertisements
Track Severe Weather on mobile